createdAt,value
2022-10-08T00:00:38.739Z,11.04
2022-10-08T00:01:38.703Z,11.09
2022-10-08T00:02:38.679Z,11.12
2022-10-08T00:03:38.691Z,11.16
2022-10-08T00:04:38.751Z,11.18
2022-10-08T00:05:38.640Z,11.20
2022-10-08T00:06:38.681Z,11.22
2022-10-08T00:07:38.611Z,11.23
2022-10-08T00:08:38.642Z,11.25
2022-10-08T00:09:38.651Z,11.28
2022-10-08T00:10:38.629Z,11.30
2022-10-08T00:11:38.610Z,11.30
2022-10-08T00:12:38.590Z,11.30
2022-10-08T00:13:38.601Z,11.33
2022-10-08T00:14:38.553Z,11.34
2022-10-08T00:15:38.540Z,11.34
2022-10-08T00:16:38.595Z,11.37
2022-10-08T00:17:38.548Z,11.37
2022-10-08T00:18:38.520Z,11.38
2022-10-08T00:19:38.490Z,11.40
2022-10-08T00:20:38.482Z,11.41
2022-10-08T00:21:38.469Z,11.43
2022-10-08T00:22:38.462Z,11.43
2022-10-08T00:23:38.479Z,11.46
2022-10-08T00:24:38.439Z,11.49
2022-10-08T00:25:38.429Z,11.52
2022-10-08T00:26:43.324Z,11.54
2022-10-08T00:27:39.410Z,11.55
2022-10-08T00:28:38.506Z,11.56
2022-10-08T00:29:38.419Z,11.59
2022-10-08T00:30:38.377Z,11.61
2022-10-08T00:31:38.496Z,11.61
2022-10-08T00:32:38.369Z,11.64
2022-10-08T00:33:38.340Z,11.66
2022-10-08T00:34:38.359Z,11.67
2022-10-08T00:35:38.319Z,11.69
2022-10-08T00:36:38.323Z,11.69
2022-10-08T00:37:38.320Z,11.67
2022-10-08T00:38:38.299Z,11.67
2022-10-08T00:39:38.299Z,11.67
2022-10-08T00:40:38.268Z,11.66
2022-10-08T00:41:38.279Z,11.66
2022-10-08T00:42:38.251Z,11.66
2022-10-08T00:43:38.262Z,11.66
2022-10-08T00:44:38.231Z,11.66
2022-10-08T00:45:38.235Z,11.66
2022-10-08T00:46:38.248Z,11.66
2022-10-08T00:47:38.187Z,11.66
2022-10-08T00:48:38.178Z,11.64
2022-10-08T00:49:38.170Z,11.64
2022-10-08T00:50:38.267Z,11.64
2022-10-08T00:51:38.146Z,11.64
2022-10-08T00:52:38.147Z,11.62
2022-10-08T00:53:38.158Z,11.62
2022-10-08T00:54:38.118Z,11.62
2022-10-08T00:55:43.146Z,11.62
2022-10-08T00:56:39.106Z,11.62
2022-10-08T00:57:38.108Z,11.66
2022-10-08T00:58:38.108Z,11.67
2022-10-08T00:59:38.087Z,11.69
2022-10-08T01:00:38.118Z,11.67
2022-10-08T01:01:38.072Z,11.66
2022-10-08T01:02:38.028Z,11.66
2022-10-08T01:03:38.070Z,11.67
2022-10-08T01:04:38.008Z,11.67
2022-10-08T01:05:37.998Z,11.66
2022-10-08T01:06:37.988Z,11.67
2022-10-08T01:07:37.977Z,11.66
2022-10-08T01:08:37.981Z,11.64
2022-10-08T01:09:37.980Z,11.64
2022-10-08T01:10:37.938Z,11.67
2022-10-08T01:11:37.935Z,11.66
2022-10-08T01:12:37.966Z,11.66
2022-10-08T01:13:37.957Z,11.66
2022-10-08T01:14:37.918Z,11.66
2022-10-08T01:15:37.899Z,11.64
2022-10-08T01:16:37.934Z,11.64
2022-10-08T01:17:37.867Z,11.62
2022-10-08T01:18:37.858Z,11.62
2022-10-08T01:19:37.958Z,11.61
2022-10-08T01:20:37.856Z,11.61
2022-10-08T01:21:37.827Z,11.61
2022-10-08T01:22:37.817Z,11.62
2022-10-08T01:23:37.797Z,11.62
2022-10-08T01:24:37.907Z,11.62
2022-10-08T01:25:37.799Z,11.59
2022-10-08T01:26:37.777Z,11.61
2022-10-08T01:27:37.757Z,11.62
2022-10-08T01:28:37.777Z,11.62
2022-10-08T01:29:37.789Z,11.62
2022-10-08T01:30:37.753Z,11.64
2022-10-08T01:31:37.812Z,11.64
2022-10-08T01:32:37.708Z,11.66
2022-10-08T01:33:37.697Z,11.67
2022-10-08T01:34:37.799Z,11.67
2022-10-08T01:35:37.677Z,11.67
2022-10-08T01:36:37.696Z,11.70
2022-10-08T01:37:37.686Z,11.71
2022-10-08T01:38:37.647Z,11.73
2022-10-08T01:39:37.636Z,11.74
2022-10-08T01:40:37.617Z,11.74
2022-10-08T01:41:37.612Z,11.74
2022-10-08T01:42:37.663Z,11.76
2022-10-08T01:43:37.586Z,11.76
2022-10-08T01:44:37.587Z,11.77
2022-10-08T01:45:37.652Z,11.80
2022-10-08T01:46:37.566Z,11.80
2022-10-08T01:47:37.657Z,11.82
2022-10-08T01:48:37.555Z,11.82
2022-10-08T01:49:37.527Z,11.82
2022-10-08T01:50:37.517Z,11.82
2022-10-08T01:51:37.496Z,11.84
2022-10-08T01:52:37.489Z,11.82
2022-10-08T01:53:37.611Z,11.82
2022-10-08T01:54:37.474Z,11.82
2022-10-08T01:55:37.463Z,11.80
2022-10-08T01:56:37.466Z,11.82
2022-10-08T01:57:37.436Z,11.80
2022-10-08T01:58:44.530Z,11.80
2022-10-08T01:59:37.440Z,11.79
2022-10-08T02:00:37.416Z,11.82
2022-10-08T02:01:37.412Z,11.82
2022-10-08T02:02:37.421Z,11.84
2022-10-08T02:03:37.427Z,11.85
2022-10-08T02:04:37.382Z,11.88
2022-10-08T02:05:37.349Z,11.87
2022-10-08T02:06:37.352Z,11.89
2022-10-08T02:07:37.338Z,11.93
2022-10-08T02:08:37.360Z,11.95
2022-10-08T02:09:37.311Z,11.97
2022-10-08T02:10:37.299Z,11.97
2022-10-08T02:11:37.289Z,12.00
2022-10-08T02:12:37.284Z,11.99
2022-10-08T02:13:37.268Z,12.03
2022-10-08T02:14:37.301Z,12.04
2022-10-08T02:15:37.249Z,12.05
2022-10-08T02:16:37.278Z,12.07
2022-10-08T02:17:37.218Z,12.07
2022-10-08T02:18:37.216Z,12.08
2022-10-08T02:19:37.210Z,12.10
2022-10-08T02:20:37.230Z,12.10
2022-10-08T02:21:37.185Z,12.11
2022-10-08T02:22:37.169Z,12.13
2022-10-08T02:23:37.197Z,12.13
2022-10-08T02:24:37.147Z,12.14
2022-10-08T02:25:37.137Z,12.15
2022-10-08T02:26:37.138Z,12.15
2022-10-08T02:27:37.118Z,12.17
2022-10-08T02:28:37.194Z,12.17
2022-10-08T02:29:37.127Z,12.21
2022-10-08T02:30:37.087Z,12.18
2022-10-08T02:31:37.159Z,12.21
2022-10-08T02:32:37.058Z,12.21
2022-10-08T02:33:37.051Z,12.22
2022-10-08T02:34:37.048Z,12.23
2022-10-08T02:35:37.028Z,12.23
2022-10-08T02:36:37.053Z,12.25
2022-10-08T02:37:37.045Z,12.25
2022-10-08T02:38:37.008Z,12.29
2022-10-08T02:39:36.989Z,12.29
2022-10-08T02:40:36.978Z,12.32
2022-10-08T02:41:36.987Z,12.32
2022-10-08T02:42:36.965Z,12.32
2022-10-08T02:43:36.946Z,12.35
2022-10-08T02:44:36.949Z,12.35
2022-10-08T02:45:37.015Z,12.36
2022-10-08T02:46:36.915Z,12.40
2022-10-08T02:47:36.949Z,12.40
2022-10-08T02:48:36.901Z,12.41
2022-10-08T02:49:36.877Z,12.41
2022-10-08T02:50:36.868Z,12.43
2022-10-08T02:51:36.962Z,12.43
2022-10-08T02:52:36.876Z,12.44
2022-10-08T02:53:36.833Z,12.46
2022-10-08T02:54:36.827Z,12.48
2022-10-08T02:55:36.818Z,12.50
2022-10-08T02:56:36.797Z,12.51
2022-10-08T02:57:36.827Z,12.58
2022-10-08T02:58:36.796Z,12.59
2022-10-08T02:59:36.767Z,12.62
2022-10-08T03:00:36.764Z,12.62
2022-10-08T03:01:36.823Z,12.63
2022-10-08T03:02:36.783Z,12.63
2022-10-08T03:03:36.772Z,12.63
2022-10-08T03:04:36.725Z,12.63
2022-10-08T03:05:36.707Z,12.62
2022-10-08T03:06:36.698Z,12.61
2022-10-08T03:07:36.717Z,12.59
2022-10-08T03:08:36.677Z,12.61
2022-10-08T03:09:36.664Z,12.59
2022-10-08T03:10:36.647Z,12.58
2022-10-08T03:11:36.646Z,12.53
2022-10-08T03:12:36.635Z,12.47
2022-10-08T03:13:36.647Z,12.41
2022-10-08T03:14:36.626Z,12.29
2022-10-08T03:15:36.610Z,12.22
2022-10-08T03:16:36.608Z,12.18
2022-10-08T03:17:36.566Z,12.17
2022-10-08T03:18:36.604Z,12.13
2022-10-08T03:19:36.557Z,12.11
2022-10-08T03:20:36.576Z,12.08
2022-10-08T03:21:36.533Z,12.10
2022-10-08T03:22:36.555Z,12.08
2022-10-08T03:23:36.515Z,12.05
2022-10-08T03:24:36.538Z,12.04
2022-10-08T03:25:36.495Z,12.04
2022-10-08T03:26:36.481Z,11.99
2022-10-08T03:27:36.466Z,11.97
2022-10-08T03:28:36.534Z,11.93
2022-10-08T03:29:36.449Z,11.88
2022-10-08T03:30:36.521Z,11.84
2022-10-08T03:31:36.427Z,11.77
2022-10-08T03:32:36.420Z,11.76
2022-10-08T03:33:36.405Z,11.70
2022-10-08T03:34:36.397Z,11.67
2022-10-08T03:35:36.376Z,11.66
2022-10-08T03:36:36.396Z,11.61
2022-10-08T03:37:36.365Z,11.56
2022-10-08T03:38:36.357Z,11.54
2022-10-08T03:39:36.336Z,11.51
2022-10-08T03:40:36.335Z,11.49
2022-10-08T03:41:36.347Z,11.46
2022-10-08T03:42:36.317Z,11.41
2022-10-08T03:43:36.296Z,11.40
2022-10-08T03:44:36.324Z,11.37
2022-10-08T03:45:36.276Z,11.37
2022-10-08T03:46:36.299Z,11.34
2022-10-08T03:47:36.255Z,11.36
2022-10-08T03:48:36.245Z,11.34
2022-10-08T03:49:40.046Z,11.31
2022-10-08T03:50:36.218Z,11.31
2022-10-08T03:51:36.216Z,11.30
2022-10-08T03:52:36.202Z,11.28
2022-10-08T03:53:36.239Z,11.27
2022-10-08T03:54:36.214Z,11.27
2022-10-08T03:55:36.194Z,11.25
2022-10-08T03:56:36.185Z,11.23
2022-10-08T03:57:36.152Z,11.25
2022-10-08T03:58:36.175Z,11.22
2022-10-08T03:59:36.124Z,11.22
2022-10-08T04:00:43.127Z,11.22
2022-10-08T04:01:36.133Z,11.23
2022-10-08T04:02:36.120Z,11.25
2022-10-08T04:03:36.085Z,11.23
2022-10-08T04:04:36.075Z,11.23
2022-10-08T04:05:36.055Z,11.22
2022-10-08T04:06:36.093Z,11.22
2022-10-08T04:07:36.034Z,11.23
2022-10-08T04:08:36.034Z,11.23
2022-10-08T04:09:36.014Z,11.23
2022-10-08T04:10:36.005Z,11.23
2022-10-08T04:11:36.034Z,11.25
2022-10-08T04:12:35.985Z,11.27
2022-10-08T04:13:35.978Z,11.25
2022-10-08T04:14:35.963Z,11.25
2022-10-08T04:15:36.027Z,11.27
2022-10-08T04:16:35.975Z,11.27
2022-10-08T04:17:35.943Z,11.28
2022-10-08T04:18:35.929Z,11.28
2022-10-08T04:19:35.925Z,11.28
2022-10-08T04:20:35.900Z,11.27
2022-10-08T04:21:35.943Z,11.27
2022-10-08T04:22:37.641Z,11.27
2022-10-08T04:23:35.864Z,11.25
2022-10-08T04:24:35.854Z,11.27
2022-10-08T04:25:35.850Z,11.25
2022-10-08T04:26:35.824Z,11.28
2022-10-08T04:27:35.842Z,11.28
2022-10-08T04:28:38.624Z,11.28
2022-10-08T04:29:35.844Z,11.25
2022-10-08T04:30:35.813Z,11.27
2022-10-08T04:31:35.844Z,11.27
2022-10-08T04:32:35.765Z,11.27
2022-10-08T04:33:35.782Z,11.30
2022-10-08T04:34:35.743Z,11.28
2022-10-08T04:35:35.789Z,11.30
2022-10-08T04:36:35.723Z,11.28
2022-10-08T04:37:35.722Z,11.28
2022-10-08T04:38:35.709Z,11.30
2022-10-08T04:39:35.700Z,11.30
2022-10-08T04:40:35.682Z,11.30
2022-10-08T04:41:35.712Z,11.30
2022-10-08T04:42:35.720Z,11.30
2022-10-08T04:43:41.663Z,11.31
2022-10-08T04:44:35.642Z,11.33
2022-10-08T04:45:35.632Z,11.31
2022-10-08T04:46:35.705Z,11.33
2022-10-08T04:47:35.612Z,11.33
2022-10-08T04:48:35.592Z,11.34
2022-10-08T04:49:38.800Z,11.33
2022-10-08T04:50:35.602Z,11.34
2022-10-08T04:51:41.795Z,11.34
2022-10-08T04:52:35.552Z,11.33
2022-10-08T04:53:35.542Z,11.34
2022-10-08T04:54:35.540Z,11.34
2022-10-08T04:55:35.523Z,11.36
2022-10-08T04:56:35.536Z,11.34
2022-10-08T04:57:35.503Z,11.34
2022-10-08T04:58:35.493Z,11.36
2022-10-08T04:59:35.475Z,11.37
2022-10-08T05:00:35.485Z,11.38
2022-10-08T05:02:46.812Z,11.41
2022-10-08T05:03:46.296Z,11.38
2022-10-08T05:04:46.326Z,11.38
2022-10-08T05:05:46.278Z,11.38
2022-10-08T05:06:46.266Z,11.36
2022-10-08T05:07:46.255Z,11.34
2022-10-08T05:08:46.256Z,11.34
2022-10-08T05:09:46.236Z,11.36
2022-10-08T05:10:46.296Z,11.37
2022-10-08T05:11:46.215Z,11.37
2022-10-08T05:12:46.499Z,11.37
2022-10-08T05:13:46.245Z,11.37
2022-10-08T05:14:46.184Z,11.38
2022-10-08T05:15:46.204Z,11.38
2022-10-08T05:16:46.185Z,11.38
2022-10-08T05:17:46.155Z,11.38
2022-10-08T05:18:46.145Z,11.38
2022-10-08T05:19:46.125Z,11.37
2022-10-08T05:20:46.122Z,11.36
2022-10-08T05:21:46.155Z,11.37
2022-10-08T05:22:46.403Z,11.36
2022-10-08T05:23:46.094Z,11.36
2022-10-08T05:24:46.083Z,11.38
2022-10-08T05:25:46.065Z,11.38
2022-10-08T05:26:57.985Z,11.46
2022-10-08T05:27:47.036Z,11.48
2022-10-08T05:28:46.100Z,11.46
2022-10-08T05:29:46.015Z,11.48
2022-10-08T05:30:46.034Z,11.48
2022-10-08T05:31:46.001Z,11.46
2022-10-08T05:32:46.245Z,11.46
2022-10-08T05:33:45.975Z,11.45
2022-10-08T05:34:47.555Z,11.45
2022-10-08T05:35:45.958Z,11.46
2022-10-08T05:36:45.945Z,11.43
2022-10-08T05:37:45.925Z,11.45
2022-10-08T05:38:45.924Z,11.46
2022-10-08T05:39:45.917Z,11.46
2022-10-08T05:40:45.934Z,11.45
2022-10-08T05:41:45.894Z,11.45
2022-10-08T05:42:46.241Z,11.46
2022-10-08T05:43:45.872Z,11.45
2022-10-08T05:44:45.857Z,11.43
2022-10-08T05:45:45.851Z,11.41
2022-10-08T05:46:45.912Z,11.43
2022-10-08T05:47:45.864Z,11.45
2022-10-08T05:48:45.814Z,11.46
2022-10-08T05:49:45.855Z,11.46
2022-10-08T05:50:45.794Z,11.45
2022-10-08T05:51:45.785Z,11.43
2022-10-08T05:52:46.182Z,11.43
2022-10-08T05:53:45.762Z,11.46
2022-10-08T05:54:45.757Z,11.45
2022-10-08T05:55:45.774Z,11.45
2022-10-08T05:56:45.734Z,11.46
2022-10-08T05:57:45.722Z,11.48
2022-10-08T05:58:45.748Z,11.48
2022-10-08T05:59:45.707Z,11.48
2022-10-08T06:00:45.724Z,11.49
2022-10-08T06:01:50.385Z,11.49
2022-10-08T06:02:46.046Z,11.49
2022-10-08T06:03:45.655Z,11.49
2022-10-08T06:04:45.681Z,11.48
2022-10-08T06:05:45.643Z,11.48
2022-10-08T06:06:45.674Z,11.49
2022-10-08T06:07:45.643Z,11.51
2022-10-08T06:08:46.333Z,11.52
2022-10-08T06:09:45.594Z,11.54
2022-10-08T06:10:45.581Z,11.54
2022-10-08T06:11:45.571Z,11.54
2022-10-08T06:12:45.881Z,11.55
2022-10-08T06:13:45.586Z,11.59
2022-10-08T06:14:45.554Z,11.59
2022-10-08T06:15:45.578Z,11.59
2022-10-08T06:16:45.534Z,11.59
2022-10-08T06:17:45.504Z,11.59
2022-10-08T06:18:45.494Z,11.56
2022-10-08T06:19:45.513Z,11.55
2022-10-08T06:20:45.515Z,11.54
2022-10-08T06:21:45.463Z,11.54
2022-10-08T06:22:45.594Z,11.55
2022-10-08T06:23:45.433Z,11.55
2022-10-08T06:24:45.483Z,11.54
2022-10-08T06:25:45.415Z,11.55
2022-10-08T06:26:45.409Z,11.55
2022-10-08T06:27:45.403Z,11.55
2022-10-08T06:28:45.509Z,11.55
2022-10-08T06:29:45.502Z,11.56
2022-10-08T06:30:45.362Z,11.56
2022-10-08T06:31:45.450Z,11.59
2022-10-08T06:32:45.696Z,11.61
2022-10-08T06:33:45.357Z,11.61
2022-10-08T06:34:45.323Z,11.61
2022-10-08T06:35:45.341Z,11.62
2022-10-08T06:36:45.306Z,11.66
2022-10-08T06:37:45.300Z,11.66
2022-10-08T06:38:45.322Z,11.67
2022-10-08T06:39:48.473Z,11.66
2022-10-08T06:40:45.293Z,11.66
2022-10-08T06:41:45.241Z,11.64
2022-10-08T06:42:45.507Z,11.67
2022-10-08T06:43:45.222Z,11.67
2022-10-08T06:44:45.222Z,11.64
2022-10-08T06:45:45.201Z,11.66
2022-10-08T06:46:45.253Z,11.66
2022-10-08T06:47:45.185Z,11.66
2022-10-08T06:48:45.172Z,11.67
2022-10-08T06:49:45.162Z,11.67
2022-10-08T06:50:45.150Z,11.67
2022-10-08T06:51:45.141Z,11.67
2022-10-08T06:52:45.494Z,11.67
2022-10-08T06:53:45.140Z,11.69
2022-10-08T06:54:45.125Z,11.69
2022-10-08T06:55:45.091Z,11.70
2022-10-08T06:56:45.080Z,11.71
2022-10-08T06:57:45.074Z,11.73
2022-10-08T06:58:45.109Z,11.73
2022-10-08T06:59:45.053Z,11.74
2022-10-08T07:00:45.084Z,11.76
2022-10-08T07:01:45.155Z,11.77
2022-10-08T07:02:45.484Z,11.77
2022-10-08T07:03:45.048Z,11.79
2022-10-08T07:04:45.099Z,11.82
2022-10-08T07:05:44.985Z,11.84
2022-10-08T07:06:44.980Z,11.84
2022-10-08T07:07:45.000Z,11.87
2022-10-08T07:08:44.950Z,11.87
2022-10-08T07:09:44.938Z,11.89
2022-10-08T07:10:44.919Z,11.89
2022-10-08T07:11:44.958Z,11.91
2022-10-08T07:12:45.379Z,11.91
2022-10-08T07:13:44.939Z,11.93
2022-10-08T07:14:44.907Z,11.91
2022-10-08T07:15:44.877Z,11.91
2022-10-08T07:16:44.937Z,11.93
2022-10-08T07:17:44.867Z,11.93
2022-10-08T07:18:44.848Z,11.93
2022-10-08T07:19:44.862Z,11.91
2022-10-08T07:20:44.820Z,11.93
2022-10-08T07:21:44.808Z,11.93
2022-10-08T07:22:45.132Z,11.95
2022-10-08T07:23:44.819Z,11.93
2022-10-08T07:24:44.770Z,11.93
2022-10-08T07:25:44.829Z,11.93
2022-10-08T07:26:44.762Z,11.93
2022-10-08T07:27:45.134Z,11.93
2022-10-08T07:28:44.813Z,11.95
2022-10-08T07:29:49.111Z,11.95
2022-10-08T07:30:44.721Z,11.97
2022-10-08T07:31:44.815Z,11.97
2022-10-08T07:32:45.097Z,11.97
2022-10-08T07:33:44.682Z,11.99
2022-10-08T07:34:44.722Z,12.00
2022-10-08T07:35:44.691Z,11.99
2022-10-08T07:36:44.691Z,11.97
2022-10-08T07:37:44.700Z,11.97
2022-10-08T07:38:44.632Z,11.99
2022-10-08T07:39:44.629Z,11.97
2022-10-08T07:40:44.625Z,11.97
2022-10-08T07:41:44.602Z,11.99
2022-10-08T07:42:44.903Z,11.99
2022-10-08T07:43:44.581Z,12.00
2022-10-08T07:44:44.626Z,12.03
2022-10-08T07:45:44.576Z,12.04
2022-10-08T07:46:44.589Z,12.04
2022-10-08T07:47:44.659Z,12.05
2022-10-08T07:48:44.520Z,12.07
2022-10-08T07:49:44.518Z,12.08
2022-10-08T07:50:44.530Z,12.08
2022-10-08T07:51:44.519Z,12.05
2022-10-08T07:52:44.810Z,12.05
2022-10-08T07:53:44.616Z,12.05
2022-10-08T07:54:44.548Z,12.08
2022-10-08T07:55:44.479Z,12.10
2022-10-08T07:56:44.450Z,12.10
2022-10-08T07:57:44.438Z,12.10
2022-10-08T07:59:37.835Z,12.07
2022-10-08T08:00:37.789Z,12.08
2022-10-08T08:01:37.774Z,12.11
2022-10-08T08:02:37.791Z,12.11
2022-10-08T08:03:37.796Z,12.11
2022-10-08T08:04:37.744Z,12.14
2022-10-08T08:05:37.741Z,12.14
2022-10-08T08:06:37.784Z,12.17
2022-10-08T08:07:37.724Z,12.17
2022-10-08T08:08:37.732Z,12.18
2022-10-08T08:09:37.734Z,12.25
2022-10-08T08:10:37.776Z,12.23
2022-10-08T08:11:37.675Z,12.25
2022-10-08T08:12:37.674Z,12.28
2022-10-08T08:13:37.775Z,12.30
2022-10-08T08:14:37.865Z,12.29
2022-10-08T08:15:37.674Z,12.30
2022-10-08T08:16:37.798Z,12.30
2022-10-08T08:17:37.645Z,12.29
2022-10-08T08:18:37.778Z,12.26
2022-10-08T08:19:37.723Z,12.28
2022-10-08T08:20:37.576Z,12.25
2022-10-08T08:21:37.575Z,12.25
2022-10-08T08:22:37.562Z,12.22
2022-10-08T08:23:37.535Z,12.22
2022-10-08T08:24:37.734Z,12.21
2022-10-08T08:25:37.505Z,12.17
2022-10-08T08:26:37.513Z,12.21
2022-10-08T08:27:37.502Z,12.18
2022-10-08T08:28:37.763Z,12.18
2022-10-08T08:29:37.524Z,12.17
2022-10-08T08:30:37.485Z,12.18
2022-10-08T08:31:37.513Z,12.23
2022-10-08T08:32:37.474Z,12.23
2022-10-08T08:33:37.485Z,12.25
2022-10-08T08:34:37.424Z,12.28
2022-10-08T08:35:37.435Z,12.29
2022-10-08T08:36:37.425Z,12.30
2022-10-08T08:37:37.421Z,12.32
2022-10-08T08:38:37.415Z,12.32
2022-10-08T08:39:37.464Z,12.33
2022-10-08T08:40:37.356Z,12.35
2022-10-08T08:41:37.354Z,12.38
2022-10-08T08:42:37.404Z,12.41
2022-10-08T08:43:37.394Z,12.44
2022-10-08T08:44:37.302Z,12.46
2022-10-08T08:45:52.627Z,12.51
2022-10-08T08:46:38.332Z,12.54
2022-10-08T08:47:37.275Z,12.58
2022-10-08T08:48:37.266Z,12.61
2022-10-08T08:49:37.243Z,12.63
2022-10-08T08:50:37.267Z,12.68
2022-10-08T08:51:37.224Z,12.72
2022-10-08T08:52:37.215Z,12.77
2022-10-08T08:53:37.269Z,12.81
2022-10-08T08:54:37.234Z,12.88
2022-10-08T08:55:37.213Z,12.91
2022-10-08T08:56:37.194Z,12.96
2022-10-08T08:57:37.173Z,13.01
2022-10-08T08:58:37.175Z,13.02
2022-10-08T08:59:37.163Z,13.01
2022-10-08T09:00:37.174Z,12.99
2022-10-08T09:01:37.166Z,13.02
2022-10-08T09:02:37.094Z,13.05
2022-10-08T09:03:37.093Z,13.08
2022-10-08T09:04:39.549Z,13.06
2022-10-08T09:05:46.459Z,13.09
2022-10-08T09:06:38.452Z,13.09
2022-10-08T09:07:37.082Z,13.11
2022-10-08T09:08:37.085Z,13.17
2022-10-08T09:09:37.041Z,13.20
2022-10-08T09:10:37.027Z,13.21
2022-10-08T09:11:37.024Z,13.20
2022-10-08T09:12:37.143Z,13.23
2022-10-08T09:13:36.984Z,13.24
2022-10-08T09:14:36.972Z,13.24
2022-10-08T09:15:36.972Z,13.20
2022-10-08T09:16:37.007Z,13.21
2022-10-08T09:17:36.942Z,13.20
2022-10-08T09:18:36.973Z,13.23
2022-10-08T09:19:36.950Z,13.21
2022-10-08T09:20:40.245Z,13.20
2022-10-08T09:21:36.923Z,13.26
2022-10-08T09:22:36.893Z,13.27
2022-10-08T09:23:36.872Z,13.32
2022-10-08T09:24:37.114Z,13.35
2022-10-08T09:25:36.870Z,13.36
2022-10-08T09:26:36.840Z,13.39
2022-10-08T09:27:36.841Z,13.49
2022-10-08T09:28:36.920Z,13.58
2022-10-08T09:29:36.815Z,13.64
2022-10-08T09:30:36.895Z,13.65
2022-10-08T09:31:36.861Z,13.67
2022-10-08T09:32:36.783Z,13.71
2022-10-08T09:33:36.771Z,13.67
2022-10-08T09:34:36.773Z,13.68
2022-10-08T09:35:36.752Z,13.72
2022-10-08T09:36:36.741Z,13.71
2022-10-08T09:37:36.733Z,13.72
2022-10-08T09:38:36.725Z,13.68
2022-10-08T09:39:36.740Z,13.68
2022-10-08T09:40:36.712Z,13.67
2022-10-08T09:41:36.680Z,13.71
2022-10-08T09:42:36.673Z,13.72
2022-10-08T09:43:36.665Z,13.72
2022-10-08T09:44:36.673Z,13.72
2022-10-08T09:45:36.748Z,13.75
2022-10-08T09:46:36.622Z,13.76
2022-10-08T09:47:36.614Z,13.78
2022-10-08T09:48:36.603Z,13.79
2022-10-08T09:49:36.652Z,13.82
2022-10-08T09:50:36.582Z,13.82
2022-10-08T09:51:36.583Z,13.85
2022-10-08T09:52:36.566Z,13.83
2022-10-08T09:53:36.552Z,13.82
2022-10-08T09:54:36.536Z,13.82
2022-10-08T09:55:36.571Z,13.83
2022-10-08T09:56:36.543Z,13.82
2022-10-08T09:57:39.379Z,13.80
2022-10-08T09:58:37.492Z,13.83
2022-10-08T09:59:36.518Z,13.83
2022-10-08T10:00:36.475Z,13.86
2022-10-08T10:01:36.633Z,13.86
2022-10-08T10:02:36.463Z,13.93
2022-10-08T10:03:36.487Z,13.94
2022-10-08T10:04:36.430Z,13.96
2022-10-08T10:05:36.422Z,13.98
2022-10-08T10:06:36.415Z,13.97
2022-10-08T10:07:36.473Z,13.98
2022-10-08T10:08:36.385Z,13.98
2022-10-08T10:09:36.401Z,13.97
2022-10-08T10:10:36.362Z,13.98
2022-10-08T10:11:36.363Z,13.96
2022-10-08T10:12:36.353Z,13.96
2022-10-08T10:13:36.382Z,13.96
2022-10-08T10:14:36.323Z,13.97
2022-10-08T10:15:36.313Z,14.01
2022-10-08T10:16:36.411Z,14.04
2022-10-08T10:17:36.356Z,14.13
2022-10-08T10:18:36.312Z,14.18
2022-10-08T10:19:36.312Z,14.23
2022-10-08T10:20:36.268Z,14.27
2022-10-08T10:21:36.252Z,14.30
2022-10-08T10:22:36.251Z,14.33
2022-10-08T10:23:36.330Z,14.34
2022-10-08T10:24:36.277Z,14.36
2022-10-08T10:25:36.241Z,14.36
2022-10-08T10:26:36.202Z,14.41
2022-10-08T10:27:36.220Z,14.46
2022-10-08T10:28:36.245Z,14.52
2022-10-08T10:29:36.182Z,14.56
2022-10-08T10:30:36.224Z,14.59
2022-10-08T10:31:36.141Z,14.58
2022-10-08T10:32:36.133Z,14.56
2022-10-08T10:33:36.264Z,14.55
2022-10-08T10:34:36.242Z,14.52
2022-10-08T10:35:36.114Z,14.49
2022-10-08T10:36:36.091Z,14.48
2022-10-08T10:37:36.092Z,14.41
2022-10-08T10:38:38.492Z,14.37
2022-10-08T10:39:37.150Z,14.33
2022-10-08T10:40:36.082Z,14.28
2022-10-08T10:41:36.033Z,14.27
2022-10-08T10:42:36.012Z,14.26
2022-10-08T10:43:36.085Z,14.22
2022-10-08T10:44:36.012Z,14.21
2022-10-08T10:45:36.085Z,14.19
2022-10-08T10:46:36.065Z,14.19
2022-10-08T10:47:35.973Z,14.19
2022-10-08T10:48:35.952Z,14.18
2022-10-08T10:49:35.990Z,14.15
2022-10-08T10:50:35.954Z,14.13
2022-10-08T10:51:35.951Z,14.12
2022-10-08T10:52:35.942Z,14.11
2022-10-08T10:53:35.971Z,14.08
2022-10-08T10:54:35.900Z,14.09
2022-10-08T10:55:35.891Z,14.05
2022-10-08T10:56:35.932Z,14.04
2022-10-08T10:57:35.878Z,14.04
2022-10-08T10:58:35.981Z,14.01
2022-10-08T10:59:35.866Z,14.00
2022-10-08T11:00:35.821Z,13.98
2022-10-08T11:01:35.905Z,13.98
2022-10-08T11:02:35.939Z,13.98
2022-10-08T11:03:35.892Z,13.98
2022-10-08T11:04:35.813Z,13.97
2022-10-08T11:05:35.952Z,13.97
2022-10-08T11:06:35.902Z,13.96
2022-10-08T11:07:35.861Z,13.94
2022-10-08T11:08:35.762Z,13.94
2022-10-08T11:09:35.758Z,13.93
2022-10-08T11:10:35.730Z,13.93
2022-10-08T11:11:35.801Z,13.91
2022-10-08T11:12:35.831Z,13.91
2022-10-08T11:13:35.701Z,13.91
2022-10-08T11:14:35.812Z,13.90
2022-10-08T11:15:35.742Z,13.90
2022-10-08T11:16:35.672Z,13.91
2022-10-08T11:17:35.731Z,13.93
2022-10-08T11:18:35.839Z,13.94
2022-10-08T11:19:35.662Z,13.96
2022-10-08T11:20:35.721Z,13.98
2022-10-08T11:21:35.649Z,14.00
2022-10-08T11:22:35.662Z,14.03
2022-10-08T11:23:35.651Z,14.04
2022-10-08T11:24:35.690Z,14.08
2022-10-08T11:25:55.722Z,14.16
2022-10-08T11:26:36.584Z,14.19
2022-10-08T11:27:35.590Z,14.27
2022-10-08T11:28:35.597Z,14.36
2022-10-08T11:29:35.747Z,14.41
2022-10-08T11:30:35.598Z,14.49
2022-10-08T11:31:35.530Z,14.59
2022-10-08T11:32:35.629Z,14.67
2022-10-08T11:33:35.531Z,14.71
2022-10-08T11:34:35.591Z,14.78
2022-10-08T11:35:35.532Z,14.85
2022-10-08T11:36:35.481Z,14.90
2022-10-08T11:37:35.510Z,14.96
2022-10-08T11:38:35.489Z,15.04
2022-10-08T11:39:35.421Z,15.08
2022-10-08T11:40:35.482Z,15.12
2022-10-08T11:41:35.420Z,15.17
2022-10-08T11:42:39.902Z,15.20
2022-10-08T11:43:36.413Z,15.23
2022-10-08T11:44:35.411Z,15.26
2022-10-08T11:45:35.340Z,15.30
2022-10-08T11:46:35.450Z,15.38
2022-10-08T11:47:35.332Z,15.43
2022-10-08T11:48:35.301Z,15.50
2022-10-08T11:49:35.293Z,15.52
2022-10-08T11:50:35.341Z,15.60
2022-10-08T11:51:35.310Z,15.66
2022-10-08T11:52:35.742Z,15.69
2022-10-08T11:53:35.258Z,15.72
2022-10-08T11:54:35.772Z,15.78
2022-10-08T11:55:35.290Z,15.83
2022-10-08T11:56:35.209Z,15.84
2022-10-08T11:57:55.876Z,15.87
2022-10-08T11:58:36.249Z,15.87
2022-10-08T11:59:35.260Z,15.87
2022-10-08T12:00:35.171Z,15.83
2022-10-08T12:01:35.159Z,15.81
2022-10-08T12:02:35.292Z,15.78
2022-10-08T12:03:35.286Z,15.80
2022-10-08T12:04:35.192Z,15.81
2022-10-08T12:05:35.112Z,15.81
2022-10-08T12:06:35.307Z,15.84
2022-10-08T12:07:35.095Z,15.87
2022-10-08T12:08:35.100Z,15.88
2022-10-08T12:09:35.101Z,15.90
2022-10-08T12:10:35.091Z,15.88
2022-10-08T12:11:35.085Z,15.87
2022-10-08T12:12:35.091Z,15.84
2022-10-08T12:13:35.032Z,15.84
2022-10-08T12:14:35.011Z,15.81
2022-10-08T12:15:35.012Z,15.80
2022-10-08T12:16:34.993Z,15.78
2022-10-08T12:17:35.063Z,15.70
2022-10-08T12:18:35.010Z,15.70
2022-10-08T12:19:35.412Z,15.68
2022-10-08T12:20:35.467Z,15.65
2022-10-08T12:21:34.981Z,15.62
2022-10-08T12:22:34.970Z,15.54
2022-10-08T12:23:34.971Z,15.51
2022-10-08T12:24:34.942Z,15.52
2022-10-08T12:25:34.906Z,15.54
2022-10-08T12:26:35.030Z,15.56
2022-10-08T12:27:34.942Z,15.59
2022-10-08T12:28:34.993Z,15.65
2022-10-08T12:29:34.890Z,15.68
2022-10-08T12:30:34.871Z,15.70
2022-10-08T12:31:34.884Z,15.76
2022-10-08T12:32:34.940Z,15.77
2022-10-08T12:33:34.828Z,15.78
2022-10-08T12:34:34.811Z,15.81
2022-10-08T12:35:34.817Z,15.84
2022-10-08T12:36:34.811Z,15.81
2022-10-08T12:37:34.782Z,15.81
2022-10-08T12:38:34.811Z,15.81
2022-10-08T12:39:34.771Z,15.77
2022-10-08T12:40:34.809Z,15.77
2022-10-08T12:41:34.785Z,15.72
2022-10-08T12:42:34.727Z,15.70
2022-10-08T12:43:34.701Z,15.68
2022-10-08T12:44:34.694Z,15.65
2022-10-08T12:45:34.701Z,15.60
2022-10-08T12:46:34.798Z,15.54
2022-10-08T12:47:34.692Z,15.51
2022-10-08T12:48:34.671Z,15.51
2022-10-08T12:49:34.650Z,15.56
2022-10-08T12:50:34.699Z,15.54
2022-10-08T12:51:34.612Z,15.51
2022-10-08T12:52:34.603Z,15.51
2022-10-08T12:53:34.590Z,15.51
2022-10-08T12:54:34.581Z,15.48